Time;durP1;ratioP1;P1;durP2;ratioP2;P2;SDS_P1;SDS_P2;PMS_P1;PMS_P2;Temp;Humidity;BMP_temperature;BMP_pressure;BME280_temperature;BME280_humidity;BME280_pressure;Samples;Min_cycle;Max_cycle;Signal;HPM_P1;HPM_P2
2022/02/05 00:00:51;;;;;;;;;;;3.40;99.90;;;;;;6178917;23;19924;-88
2022/02/05 00:03:23;;;;;;;;;;;3.30;99.90;;;;;;6180816;23;19916;-91
2022/02/05 00:05:54;;;;;;;;;;;3.30;99.90;;;;;;6180163;23;19923;-87
2022/02/05 00:43:13;;;;;;;;;;;3.60;99.90;;;;;;6201540;23;20007;-86
2022/02/05 00:45:42;;;;;;;;;;;3.60;99.90;;;;;;6180187;23;19923;-86
2022/02/05 00:48:08;;;;;;;;;;;3.70;99.90;;;;;;6204144;23;20321;-87
2022/02/05 00:50:38;;;;;;;;;;;3.70;99.90;;;;;;6178969;23;19916;-88
2022/02/05 00:55:36;;;;;;;;;;;3.70;99.90;;;;;;6203754;23;20234;-87
2022/02/05 00:58:03;;;;;;;;;;;3.80;99.90;;;;;;6155426;23;20106;-87
2022/02/05 01:00:29;;;;;;;;;;;3.80;99.90;;;;;;6153645;23;20026;-88
2022/02/05 01:02:55;;;;;;;;;;;3.80;99.90;;;;;;6176889;23;19973;-86
2022/02/05 01:05:21;;;;;;;;;;;3.80;99.90;;;;;;6177164;23;19920;-87
2022/02/05 01:07:46;;;;;;;;;;;3.80;99.90;;;;;;6177696;23;19916;-87
2022/02/05 01:10:13;;;;;;;;;;;3.80;99.90;;;;;;6179415;23;19991;-87
2022/02/05 01:12:43;;;;;;;;;;;3.70;99.90;;;;;;6178577;23;19982;-87
2022/02/05 01:15:09;;;;;;;;;;;3.70;99.90;;;;;;6155444;23;20300;-87
2022/02/05 01:17:49;;;;;;;;;;;3.70;99.90;;;;;;6179469;23;19916;-88
2022/02/05 01:22:43;;;;;;;;;;;3.50;99.90;;;;;;6206063;23;19916;-86
2022/02/05 01:25:09;;;;;;;;;;;3.50;99.90;;;;;;6155871;23;20221;-86
2022/02/05 01:27:43;;;;;;;;;;;3.50;99.90;;;;;;6154971;23;19920;-86
2022/02/05 01:30:26;;;;;;;;;;;3.50;99.90;;;;;;6179575;23;20020;-86
2022/02/05 01:33:03;;;;;;;;;;;3.50;99.90;;;;;;6157309;23;20329;-87
2022/02/05 01:55:02;;;;;;;;;;;3.60;99.90;;;;;;6202301;23;20242;-85
2022/02/05 01:58:16;;;;;;;;;;;3.70;99.90;;;;;;6205069;23;20257;-86
2022/02/05 02:05:37;;;;;;;;;;;3.70;99.90;;;;;;6201785;23;20352;-87
2022/02/05 02:21:56;;;;;;;;;;;3.80;99.90;;;;;;6158823;23;19954;-86
2022/02/05 02:24:37;;;;;;;;;;;3.80;99.90;;;;;;6156441;23;19955;-87
2022/02/05 02:30:34;;;;;;;;;;;3.90;99.90;;;;;;6178170;23;19943;-86
2022/02/05 02:32:24;;;;;;;;;;;3.90;99.90;;;;;;6161588;23;19916;-87
2022/02/05 02:34:59;;;;;;;;;;;4.00;99.90;;;;;;6177768;23;19924;-88
2022/02/05 02:37:32;;;;;;;;;;;4.00;99.90;;;;;;6155165;23;19991;-86
2022/02/05 02:40:22;;;;;;;;;;;4.00;99.90;;;;;;6180441;23;20266;-87
2022/02/05 02:42:51;;;;;;;;;;;4.10;99.90;;;;;;6201489;23;19966;-88
2022/02/05 02:45:16;;;;;;;;;;;4.10;99.90;;;;;;6155431;23;19923;-85
2022/02/05 02:47:44;;;;;;;;;;;4.10;99.90;;;;;;6152130;23;19916;-86
2022/02/05 02:50:30;;;;;;;;;;;4.10;99.90;;;;;;6152455;23;19926;-88
2022/02/05 02:58:29;;;;;;;;;;;4.10;99.90;;;;;;6203580;23;19969;-88
2022/02/05 03:00:58;;;;;;;;;;;4.00;99.90;;;;;;6178800;23;19951;-87
2022/02/05 03:03:23;;;;;;;;;;;4.00;99.90;;;;;;6176512;23;19915;-87
2022/02/05 03:05:49;;;;;;;;;;;4.00;99.90;;;;;;6176065;23;20003;-89
2022/02/05 03:08:15;;;;;;;;;;;4.00;99.90;;;;;;6176282;23;19920;-87
2022/02/05 03:10:41;;;;;;;;;;;4.00;99.90;;;;;;6175963;23;20391;-85
2022/02/05 03:13:06;;;;;;;;;;;4.00;99.90;;;;;;6151955;23;19985;-87
2022/02/05 03:15:37;;;;;;;;;;;4.00;99.90;;;;;;6149134;23;20410;-86
2022/02/05 03:18:15;;;;;;;;;;;4.10;99.90;;;;;;6151214;23;19922;-86
2022/02/05 03:20:41;;;;;;;;;;;4.00;99.90;;;;;;6176284;23;19920;-87
2022/02/05 03:23:06;;;;;;;;;;;4.00;99.90;;;;;;6151574;23;19927;-86
2022/02/05 03:25:33;;;;;;;;;;;4.00;99.90;;;;;;6175557;23;19923;-88
2022/02/05 03:27:59;;;;;;;;;;;3.90;99.90;;;;;;6175082;23;19920;-88
2022/02/05 03:30:24;;;;;;;;;;;3.90;99.90;;;;;;6174719;23;19919;-86
2022/02/05 03:32:50;;;;;;;;;;;3.90;99.90;;;;;;6174627;23;19924;-86
2022/02/05 03:35:16;;;;;;;;;;;3.90;99.90;;;;;;6150042;23;19919;-85
2022/02/05 03:37:41;;;;;;;;;;;3.90;99.90;;;;;;6175071;23;19991;-87
2022/02/05 03:40:07;;;;;;;;;;;3.80;99.90;;;;;;6153477;23;19973;-88
2022/02/05 03:42:34;;;;;;;;;;;3.80;99.90;;;;;;6200525;23;19916;-88
2022/02/05 03:45:00;;;;;;;;;;;3.80;99.90;;;;;;6175163;23;19986;-86
2022/02/05 03:47:30;;;;;;;;;;;3.70;99.90;;;;;;6175382;23;19920;-88
2022/02/05 03:49:56;;;;;;;;;;;3.70;99.90;;;;;;6173586;23;20252;-88
2022/02/05 03:52:21;;;;;;;;;;;3.60;99.90;;;;;;6150472;23;19931;-86
2022/02/05 03:54:47;;;;;;;;;;;3.60;99.90;;;;;;6151547;23;20352;-88
2022/02/05 03:57:13;;;;;;;;;;;3.60;99.90;;;;;;6175380;23;19955;-89
2022/02/05 03:59:39;;;;;;;;;;;3.50;99.90;;;;;;6149462;23;20023;-86
2022/02/05 04:02:04;;;;;;;;;;;3.50;99.90;;;;;;6149997;23;20413;-88
2022/02/05 04:04:30;;;;;;;;;;;3.50;99.90;;;;;;6198619;23;19999;-86
2022/02/05 04:06:56;;;;;;;;;;;3.40;99.90;;;;;;6200628;23;20387;-86
2022/02/05 04:09:27;;;;;;;;;;;3.40;99.90;;;;;;6174585;23;19974;-87
2022/02/05 04:17:06;;;;;;;;;;;3.30;99.90;;;;;;6179168;23;19920;-87
2022/02/05 04:19:31;;;;;;;;;;;3.30;99.90;;;;;;6149277;23;20242;-87
2022/02/05 04:21:57;;;;;;;;;;;3.30;99.90;;;;;;6149723;23;20027;-86
2022/02/05 04:24:23;;;;;;;;;;;3.30;99.90;;;;;;6148838;23;19998;-87
2022/02/05 04:26:48;;;;;;;;;;;3.30;99.90;;;;;;6150406;23;20325;-85
2022/02/05 04:29:14;;;;;;;;;;;3.30;99.90;;;;;;6150259;23;19955;-86
2022/02/05 04:31:40;;;;;;;;;;;3.30;99.90;;;;;;6148093;23;20344;-88
2022/02/05 04:34:05;;;;;;;;;;;3.20;99.90;;;;;;6173704;23;19920;-88
2022/02/05 04:36:32;;;;;;;;;;;3.20;99.90;;;;;;6173918;23;20222;-89
2022/02/05 04:39:09;;;;;;;;;;;3.20;99.90;;;;;;6149655;23;20369;-89
2022/02/05 04:41:46;;;;;;;;;;;3.30;99.90;;;;;;6153468;23;19927;-87
2022/02/05 05:20:32;;;;;;;;;;;3.80;99.90;;;;;;6203451;23;19920;-88
2022/02/05 05:22:58;;;;;;;;;;;3.80;99.90;;;;;;6177323;23;19927;-87
2022/02/05 05:25:24;;;;;;;;;;;3.70;99.90;;;;;;6154674;23;20004;-87
2022/02/05 05:27:49;;;;;;;;;;;3.60;99.90;;;;;;6179927;23;20327;-86
2022/02/05 05:30:15;;;;;;;;;;;3.60;99.90;;;;;;6178113;23;19926;-89
2022/02/05 05:32:41;;;;;;;;;;;3.50;99.90;;;;;;6152724;23;19919;-87
2022/02/05 05:35:07;;;;;;;;;;;3.40;99.90;;;;;;6177925;23;19991;-87
2022/02/05 05:37:33;;;;;;;;;;;3.40;99.90;;;;;;6153353;23;19954;-87
2022/02/05 05:39:59;;;;;;;;;;;3.30;99.90;;;;;;6152871;23;19920;-87
2022/02/05 05:42:29;;;;;;;;;;;3.30;99.90;;;;;;6177898;23;19931;-87
2022/02/05 05:52:21;;;;;;;;;;;3.10;99.90;;;;;;6175776;23;19920;-87
2022/02/05 05:54:47;;;;;;;;;;;3.10;99.90;;;;;;6152498;23;20253;-87
2022/02/05 05:57:13;;;;;;;;;;;3.10;99.90;;;;;;6178072;23;19923;-85
2022/02/05 05:59:39;;;;;;;;;;;3.10;99.90;;;;;;6152478;23;19956;-86
2022/02/05 06:02:06;;;;;;;;;;;3.10;99.90;;;;;;6168126;23;20435;-87
2022/02/05 06:04:31;;;;;;;;;;;3.20;99.90;;;;;;6167725;23;19954;-87
2022/02/05 06:06:57;;;;;;;;;;;3.20;99.90;;;;;;6166590;23;20627;-86
2022/02/05 06:09:23;;;;;;;;;;;3.20;99.90;;;;;;6147559;23;19916;-86
2022/02/05 06:11:49;;;;;;;;;;;3.20;99.90;;;;;;6173938;23;19991;-85
2022/02/05 06:14:19;;;;;;;;;;;3.20;99.90;;;;;;6177851;23;20004;-86
2022/02/05 06:16:49;;;;;;;;;;;3.20;99.90;;;;;;6173388;23;19920;-86
2022/02/05 06:19:15;;;;;;;;;;;3.20;99.90;;;;;;6149740;23;20325;-87
2022/02/05 06:21:40;;;;;;;;;;;3.20;99.90;;;;;;6149541;23;19923;-85
2022/02/05 06:24:06;;;;;;;;;;;3.10;99.90;;;;;;6201484;23;20303;-86
2022/02/05 06:26:32;;;;;;;;;;;3.10;99.90;;;;;;6151059;23;19916;-87
2022/02/05 06:28:57;;;;;;;;;;;3.10;99.90;;;;;;6176682;23;19994;-85
2022/02/05 06:31:23;;;;;;;;;;;3.10;99.90;;;;;;6150636;23;20254;-86
2022/02/05 06:33:49;;;;;;;;;;;3.10;99.90;;;;;;6150094;23;19924;-86
2022/02/05 06:36:15;;;;;;;;;;;3.10;99.90;;;;;;6176179;23;19995;-86
2022/02/05 06:38:40;;;;;;;;;;;3.00;99.90;;;;;;6180476;23;19954;-86
2022/02/05 06:41:06;;;;;;;;;;;3.10;99.90;;;;;;6174796;23;19919;-88
2022/02/05 06:43:32;;;;;;;;;;;3.00;99.90;;;;;;6151288;23;20384;-87
2022/02/05 06:45:58;;;;;;;;;;;3.00;99.90;;;;;;6176384;23;20396;-86
2022/02/05 06:48:24;;;;;;;;;;;3.00;99.90;;;;;;6199657;23;19919;-86
2022/02/05 06:50:49;;;;;;;;;;;3.00;99.90;;;;;;6177520;23;19970;-87
2022/02/05 06:53:15;;;;;;;;;;;3.00;99.90;;;;;;6177898;23;19924;-85
2022/02/05 06:55:41;;;;;;;;;;;3.00;99.90;;;;;;6178246;23;19982;-87
2022/02/05 06:58:06;;;;;;;;;;;3.10;99.90;;;;;;6153175;23;19923;-87
2022/02/05 07:00:32;;;;;;;;;;;3.10;99.90;;;;;;6202246;23;19916;-88
2022/02/05 07:02:58;;;;;;;;;;;3.00;99.90;;;;;;6175230;23;19924;-89
2022/02/05 07:05:24;;;;;;;;;;;3.00;99.90;;;;;;6152615;23;20427;-87
2022/02/05 07:07:50;;;;;;;;;;;2.90;99.90;;;;;;6151173;23;20100;-88
2022/02/05 07:10:15;;;;;;;;;;;3.00;99.90;;;;;;6176862;23;19915;-88
2022/02/05 07:12:59;;;;;;;;;;;3.00;99.90;;;;;;6200913;23;19922;-86
2022/02/05 07:15:29;;;;;;;;;;;2.90;99.90;;;;;;6184100;23;20373;-88
2022/02/05 07:18:14;;;;;;;;;;;2.90;99.90;;;;;;6201272;23;19920;-88
2022/02/05 07:20:53;;;;;;;;;;;3.00;99.90;;;;;;6179552;23;19920;-88
2022/02/05 07:29:15;;;;;;;;;;;3.10;99.90;;;;;;6178568;23;19919;-84
2022/02/05 07:31:16;;;;;;;;;;;3.10;99.90;;;;;;6178461;23;19919;-88
2022/02/05 07:33:42;;;;;;;;;;;3.10;99.90;;;;;;6176758;23;19924;-87
2022/02/05 07:36:09;;;;;;;;;;;3.10;99.90;;;;;;6200910;23;19931;-88
2022/02/05 07:38:34;;;;;;;;;;;3.10;99.90;;;;;;6150619;23;19920;-87
2022/02/05 07:41:00;;;;;;;;;;;3.10;99.90;;;;;;6151665;23;19969;-88
2022/02/05 07:43:27;;;;;;;;;;;3.10;99.90;;;;;;6149288;23;19947;-87
2022/02/05 07:45:53;;;;;;;;;;;3.10;99.90;;;;;;6202042;23;19916;-89
2022/02/05 07:48:19;;;;;;;;;;;3.10;99.90;;;;;;6177557;23;19944;-85
2022/02/05 07:50:45;;;;;;;;;;;3.10;99.90;;;;;;6179495;23;20396;-89
2022/02/05 07:53:10;;;;;;;;;;;3.00;99.90;;;;;;6178953;23;19920;-88
2022/02/05 07:55:36;;;;;;;;;;;3.00;99.90;;;;;;6156504;23;20015;-87
2022/02/05 07:58:01;;;;;;;;;;;3.00;99.90;;;;;;6154700;23;19965;-88
2022/02/05 08:00:27;;;;;;;;;;;2.90;99.90;;;;;;6153638;23;19967;-88
2022/02/05 08:02:56;;;;;;;;;;;3.00;99.90;;;;;;6177780;23;19967;-87
2022/02/05 08:05:22;;;;;;;;;;;3.00;99.90;;;;;;6152653;23;19931;-88
2022/02/05 08:07:48;;;;;;;;;;;3.00;99.90;;;;;;6177190;23;19920;-86
2022/02/05 08:10:15;;;;;;;;;;;3.00;99.90;;;;;;6178209;23;19916;-87
2022/02/05 08:12:48;;;;;;;;;;;3.10;99.90;;;;;;6153222;23;19951;-87
2022/02/05 08:15:17;;;;;;;;;;;3.10;99.90;;;;;;6177320;23;19982;-88
2022/02/05 08:17:42;;;;;;;;;;;3.20;99.90;;;;;;6152279;23;19990;-87
2022/02/05 08:20:08;;;;;;;;;;;3.30;99.90;;;;;;6178881;23;20315;-86
2022/02/05 08:22:34;;;;;;;;;;;3.30;99.90;;;;;;6154847;23;19945;-87
2022/02/05 08:25:00;;;;;;;;;;;3.30;99.90;;;;;;6159493;23;19942;-85
2022/02/05 08:27:26;;;;;;;;;;;3.30;99.90;;;;;;6153906;23;19915;-88
2022/02/05 08:29:58;;;;;;;;;;;3.30;99.90;;;;;;6202190;23;19919;-84
2022/02/05 08:32:26;;;;;;;;;;;3.40;99.90;;;;;;6156658;23;20301;-87
2022/02/05 08:34:53;;;;;;;;;;;3.40;99.90;;;;;;6175761;23;19920;-88
2022/02/05 08:37:18;;;;;;;;;;;3.50;99.90;;;;;;6176084;23;19919;-88
2022/02/05 08:39:50;;;;;;;;;;;3.50;99.90;;;;;;6151962;23;19941;-87
2022/02/05 08:42:16;;;;;;;;;;;3.60;99.90;;;;;;6142767;23;19948;-88
2022/02/05 08:44:42;;;;;;;;;;;3.60;99.90;;;;;;6097123;23;19952;-87
2022/02/05 08:47:07;;;;;;;;;;;3.70;99.90;;;;;;6098963;23;19987;-88
2022/02/05 08:49:33;;;;;;;;;;;3.70;99.90;;;;;;6099604;23;20171;-87
2022/02/05 08:52:01;;;;;;;;;;;3.80;99.90;;;;;;6099810;23;19931;-87
2022/02/05 08:54:27;;;;;;;;;;;3.90;99.90;;;;;;6123981;23;19924;-88
2022/02/05 08:56:53;;;;;;;;;;;3.90;99.90;;;;;;6125412;23;19920;-85
2022/02/05 08:59:20;;;;;;;;;;;4.10;99.90;;;;;;6125482;23;19923;-85
2022/02/05 09:01:52;;;;;;;;;;;4.00;99.90;;;;;;6124032;23;20338;-86
2022/02/05 09:04:31;;;;;;;;;;;4.10;99.90;;;;;;6121859;23;20423;-85
2022/02/05 09:06:59;;;;;;;;;;;4.10;99.90;;;;;;6123518;23;19916;-86
2022/02/05 09:14:33;;;;;;;;;;;4.20;99.90;;;;;;6176282;23;19978;-86
2022/02/05 09:16:59;;;;;;;;;;;4.20;99.90;;;;;;6179398;23;19920;-85
2022/02/05 09:19:25;;;;;;;;;;;4.30;99.90;;;;;;6179862;23;19995;-87
2022/02/05 09:21:51;;;;;;;;;;;4.40;99.90;;;;;;6180528;23;20122;-86
2022/02/05 09:24:17;;;;;;;;;;;4.50;99.90;;;;;;6180925;23;19916;-85
2022/02/05 09:26:46;;;;;;;;;;;4.60;99.90;;;;;;6182120;23;19935;-86
2022/02/05 09:29:20;;;;;;;;;;;4.70;99.90;;;;;;6179447;23;20334;-84
2022/02/05 09:31:46;;;;;;;;;;;4.80;99.90;;;;;;6176885;23;20292;-87
2022/02/05 09:34:12;;;;;;;;;;;4.80;99.90;;;;;;6141965;23;19943;-89
2022/02/05 09:36:39;;;;;;;;;;;4.90;99.90;;;;;;6150133;23;19987;-86
2022/02/05 09:39:06;;;;;;;;;;;5.10;99.90;;;;;;6104016;23;19927;-87
2022/02/05 09:41:32;;;;;;;;;;;5.10;99.90;;;;;;6127945;23;20332;-87
2022/02/05 09:43:57;;;;;;;;;;;5.20;99.90;;;;;;6101882;23;19916;-86
2022/02/05 09:46:23;;;;;;;;;;;5.20;99.90;;;;;;6123716;23;19947;-89
2022/02/05 09:48:50;;;;;;;;;;;5.20;99.90;;;;;;6125067;23;20234;-86
2022/02/05 09:51:21;;;;;;;;;;;5.20;99.90;;;;;;6127096;23;19959;-87
2022/02/05 09:53:47;;;;;;;;;;;5.30;99.90;;;;;;6125077;23;20042;-84
2022/02/05 09:56:13;;;;;;;;;;;5.40;99.90;;;;;;6128000;23;19968;-85
2022/02/05 09:58:39;;;;;;;;;;;5.50;99.90;;;;;;6150654;23;19924;-89
2022/02/05 10:01:09;;;;;;;;;;;5.50;99.90;;;;;;6102651;23;20015;-86
2022/02/05 10:03:36;;;;;;;;;;;5.50;99.90;;;;;;6128735;23;20345;-88
2022/02/05 10:06:21;;;;;;;;;;;5.50;99.90;;;;;;6152079;23;19948;-88
2022/02/05 10:08:56;;;;;;;;;;;5.60;99.90;;;;;;6126627;23;20416;-87
2022/02/05 10:11:22;;;;;;;;;;;5.60;99.90;;;;;;6126222;23;19931;-86
2022/02/05 10:13:47;;;;;;;;;;;5.60;99.90;;;;;;6102391;23;19920;-83
2022/02/05 10:16:13;;;;;;;;;;;5.60;99.90;;;;;;6102792;23;19927;-84
2022/02/05 10:18:45;;;;;;;;;;;5.60;99.90;;;;;;6098562;23;19971;-85
2022/02/05 10:21:28;;;;;;;;;;;5.70;99.90;;;;;;6123797;23;19994;-84
2022/02/05 10:23:55;;;;;;;;;;;5.70;99.90;;;;;;6125102;23;19947;-87
2022/02/05 10:26:47;;;;;;;;;;;5.70;99.90;;;;;;6126353;23;20113;-87
2022/02/05 10:29:14;;;;;;;;;;;5.70;99.90;;;;;;6118444;23;20362;-85
2022/02/05 10:32:22;;;;;;;;;;;5.80;99.90;;;;;;6146491;23;20042;-90
2022/02/05 10:35:19;;;;;;;;;;;5.80;99.90;;;;;;6122145;23;19924;-86
2022/02/05 10:37:49;;;;;;;;;;;5.80;99.90;;;;;;6122389;23;19921;-87
2022/02/05 10:40:21;;;;;;;;;;;5.80;99.90;;;;;;6122458;23;19969;-85
2022/02/05 10:45:15;;;;;;;;;;;5.70;99.90;;;;;;6122143;23;19921;-86
2022/02/05 10:47:47;;;;;;;;;;;5.70;99.90;;;;;;6099140;23;20143;-85
2022/02/05 10:50:15;;;;;;;;;;;5.70;99.90;;;;;;6123107;23;20079;-89
2022/02/05 10:52:47;;;;;;;;;;;5.60;99.90;;;;;;6123493;23;19920;-85
2022/02/05 10:55:35;;;;;;;;;;;5.60;99.90;;;;;;6120774;23;19958;-84
2022/02/05 10:58:16;;;;;;;;;;;5.70;99.90;;;;;;6121831;23;19930;-88
2022/02/05 11:05:55;;;;;;;;;;;5.90;99.90;;;;;;6150135;23;19924;-86
2022/02/05 11:08:22;;;;;;;;;;;5.90;99.90;;;;;;6122817;23;19936;-86
2022/02/05 11:16:05;;;;;;;;;;;5.80;99.90;;;;;;6122669;23;19917;-84
2022/02/05 11:21:13;;;;;;;;;;;5.80;99.90;;;;;;6148319;23;20332;-86
2022/02/05 11:23:38;;;;;;;;;;;5.90;99.90;;;;;;6099245;23;19924;-87
2022/02/05 11:26:04;;;;;;;;;;;6.00;99.90;;;;;;6124918;23;19916;-88
2022/02/05 11:28:42;;;;;;;;;;;6.00;99.90;;;;;;6125156;23;19924;-83
2022/02/05 11:31:15;;;;;;;;;;;5.90;99.90;;;;;;6124837;23;19955;-86
2022/02/05 11:33:42;;;;;;;;;;;5.90;99.90;;;;;;6147833;23;19924;-87
2022/02/05 11:36:39;;;;;;;;;;;5.90;99.90;;;;;;6149871;23;19920;-87
2022/02/05 11:39:00;;;;;;;;;;;6.00;99.90;;;;;;6148636;23;19920;-88
2022/02/05 11:41:26;;;;;;;;;;;6.00;99.90;;;;;;6146703;23;19916;-89
2022/02/05 11:44:10;;;;;;;;;;;6.00;99.90;;;;;;6123384;23;19927;-86
2022/02/05 11:46:36;;;;;;;;;;;6.00;99.90;;;;;;6123276;23;19924;-90
2022/02/05 11:49:05;;;;;;;;;;;6.00;99.90;;;;;;6099235;23;19947;-86
2022/02/05 11:51:42;;;;;;;;;;;6.10;99.90;;;;;;6099123;23;19960;-87
2022/02/05 11:54:10;;;;;;;;;;;6.10;99.90;;;;;;6122646;23;19927;-89
2022/02/05 11:56:53;;;;;;;;;;;6.10;99.90;;;;;;6147413;23;20349;-91
2022/02/05 11:59:23;;;;;;;;;;;6.10;99.90;;;;;;6149347;23;19924;-89
2022/02/05 12:01:50;;;;;;;;;;;6.10;99.90;;;;;;6121903;23;19931;-89
2022/02/05 12:04:24;;;;;;;;;;;6.20;99.90;;;;;;6099603;23;19916;-88
2022/02/05 12:06:59;;;;;;;;;;;6.10;99.90;;;;;;6098971;23;19916;-87
2022/02/05 12:09:37;;;;;;;;;;;6.20;99.90;;;;;;6104833;23;19920;-86
2022/02/05 12:12:22;;;;;;;;;;;6.20;99.90;;;;;;6125423;23;20050;-88
2022/02/05 12:15:09;;;;;;;;;;;6.30;99.90;;;;;;6123488;23;19924;-87
2022/02/05 12:21:14;;;;;;;;;;;6.40;99.90;;;;;;6141405;23;20409;-90
2022/02/05 12:26:12;;;;;;;;;;;6.40;99.90;;;;;;6149910;23;19916;-87
2022/02/05 12:28:39;;;;;;;;;;;6.40;99.90;;;;;;6124117;23;20286;-88
2022/02/05 12:31:05;;;;;;;;;;;6.40;99.90;;;;;;6124556;23;19916;-88
2022/02/05 12:33:49;;;;;;;;;;;6.50;99.90;;;;;;6124722;23;19920;-89
2022/02/05 12:36:30;;;;;;;;;;;6.50;99.90;;;;;;6124817;23;19944;-86
2022/02/05 12:38:58;;;;;;;;;;;6.60;99.90;;;;;;6123423;23;19966;-83
2022/02/05 12:41:25;;;;;;;;;;;6.60;99.90;;;;;;6149434;23;19927;-88
2022/02/05 12:43:52;;;;;;;;;;;6.60;99.90;;;;;;6124677;23;19924;-87
2022/02/05 12:46:19;;;;;;;;;;;6.60;99.90;;;;;;6129875;23;19917;-89
2022/02/05 12:48:49;;;;;;;;;;;6.60;99.90;;;;;;6101445;23;19920;-85
2022/02/05 12:51:15;;;;;;;;;;;6.60;99.90;;;;;;6152275;23;19947;-91
2022/02/05 12:53:43;;;;;;;;;;;6.70;99.90;;;;;;6103712;23;20317;-85
2022/02/05 12:56:38;;;;;;;;;;;6.90;99.90;;;;;;6105162;23;19927;-89
2022/02/05 12:59:08;;;;;;;;;;;7.10;99.90;;;;;;6148962;23;20651;-86
2022/02/05 13:01:36;;;;;;;;;;;7.40;99.90;;;;;;6123816;23;20047;-85
2022/02/05 13:04:12;;;;;;;;;;;7.80;99.90;;;;;;6150229;23;20269;-89
2022/02/05 13:06:38;;;;;;;;;;;8.20;99.90;;;;;;6126979;23;19921;-89
2022/02/05 13:09:16;;;;;;;;;;;8.40;99.90;;;;;;6101406;23;19922;-89
2022/02/05 13:11:42;;;;;;;;;;;8.40;99.90;;;;;;6127837;23;19959;-87
2022/02/05 13:14:07;;;;;;;;;;;8.30;99.90;;;;;;6104108;23;19991;-87
2022/02/05 13:16:37;;;;;;;;;;;8.20;99.90;;;;;;6104878;23;19923;-87
2022/02/05 13:19:20;;;;;;;;;;;8.00;99.90;;;;;;6103310;23;19916;-85
2022/02/05 13:28:03;;;;;;;;;;;7.60;99.90;;;;;;6121544;23;19921;-86
2022/02/05 13:35:56;;;;;;;;;;;7.90;99.90;;;;;;6151270;23;19920;-89
2022/02/05 13:38:22;;;;;;;;;;;7.90;99.90;;;;;;6126786;23;20008;-88
2022/02/05 13:40:58;;;;;;;;;;;7.80;99.90;;;;;;6100953;23;19948;-90
2022/02/05 13:43:30;;;;;;;;;;;7.80;99.90;;;;;;6125792;23;19924;-88
2022/02/05 13:46:12;;;;;;;;;;;7.60;99.90;;;;;;6103304;23;19916;-88
2022/02/05 13:48:38;;;;;;;;;;;7.70;99.90;;;;;;6127168;23;20131;-86
2022/02/05 13:51:08;;;;;;;;;;;7.60;99.90;;;;;;6126838;23;20285;-91
2022/02/05 13:53:33;;;;;;;;;;;7.60;99.90;;;;;;6126398;23;19948;-84
2022/02/05 13:56:05;;;;;;;;;;;7.60;99.90;;;;;;6101245;23;19920;-91
2022/02/05 13:58:38;;;;;;;;;;;7.60;99.90;;;;;;6101165;23;19951;-86
2022/02/05 14:01:04;;;;;;;;;;;7.60;99.90;;;;;;6101519;23;19920;-85
2022/02/05 14:03:32;;;;;;;;;;;7.50;99.90;;;;;;6126306;23;20410;-87
2022/02/05 14:06:08;;;;;;;;;;;7.50;99.90;;;;;;6125921;23;19923;-87
2022/02/05 14:08:40;;;;;;;;;;;7.50;99.90;;;;;;6102392;23;20316;-88
2022/02/05 14:11:07;;;;;;;;;;;7.40;99.90;;;;;;6151261;23;20026;-83
2022/02/05 14:13:34;;;;;;;;;;;7.50;99.90;;;;;;6124141;23;20462;-86
2022/02/05 14:16:02;;;;;;;;;;;7.50;99.90;;;;;;6124592;23;20409;-85
2022/02/05 14:18:34;;;;;;;;;;;7.50;99.90;;;;;;6124048;23;19916;-83
2022/02/05 14:21:03;;;;;;;;;;;7.50;99.90;;;;;;6124532;23;19981;-88
2022/02/05 14:23:30;;;;;;;;;;;7.50;99.90;;;;;;6124262;23;19920;-87
2022/02/05 14:26:04;;;;;;;;;;;7.50;99.90;;;;;;6107367;23;19916;-89
2022/02/05 14:28:51;;;;;;;;;;;7.50;99.90;;;;;;6128667;23;19960;-86
2022/02/05 14:36:40;;;;;;;;;;;7.60;99.90;;;;;;6153128;23;19920;-84
2022/02/05 14:41:51;;;;;;;;;;;7.60;99.90;;;;;;6174003;23;20113;-87
2022/02/05 14:44:17;;;;;;;;;;;7.40;99.90;;;;;;6124928;23;20155;-89
2022/02/05 14:46:43;;;;;;;;;;;7.40;99.90;;;;;;6150183;23;20176;-86
2022/02/05 14:49:09;;;;;;;;;;;7.30;99.90;;;;;;6150031;23;19955;-88
2022/02/05 14:51:36;;;;;;;;;;;7.20;99.90;;;;;;6150043;23;19970;-89
2022/02/05 14:54:02;;;;;;;;;;;7.20;99.90;;;;;;6174355;23;19924;-86
2022/02/05 14:56:28;;;;;;;;;;;7.20;99.90;;;;;;6149290;23;19917;-87
2022/02/05 14:58:54;;;;;;;;;;;7.10;99.90;;;;;;6123926;23;20273;-86
2022/02/05 15:01:21;;;;;;;;;;;7.10;99.90;;;;;;6150110;23;20330;-84
2022/02/05 15:03:47;;;;;;;;;;;7.10;99.90;;;;;;6155108;23;20305;-91
2022/02/05 15:06:21;;;;;;;;;;;7.00;99.90;;;;;;6149721;23;19920;-87
2022/02/05 15:08:47;;;;;;;;;;;7.00;99.90;;;;;;6149422;23;19920;-88
2022/02/05 15:11:14;;;;;;;;;;;7.00;99.90;;;;;;6126579;23;19916;-85
2022/02/05 15:13:40;;;;;;;;;;;7.00;99.90;;;;;;6152234;23;20002;-87
2022/02/05 15:16:09;;;;;;;;;;;7.00;99.90;;;;;;6177393;23;20268;-83
2022/02/05 15:18:35;;;;;;;;;;;7.00;99.90;;;;;;6151852;23;20385;-86
2022/02/05 15:21:00;;;;;;;;;;;7.00;99.90;;;;;;6129711;23;19962;-87
2022/02/05 15:23:26;;;;;;;;;;;7.00;99.90;;;;;;6126276;23;19959;-88
2022/02/05 15:25:53;;;;;;;;;;;7.00;99.90;;;;;;6152567;23;20012;-88
2022/02/05 15:28:18;;;;;;;;;;;7.00;99.90;;;;;;6127578;23;19986;-87
2022/02/05 15:30:44;;;;;;;;;;;6.90;99.90;;;;;;6151628;23;19999;-87
2022/02/05 15:33:10;;;;;;;;;;;6.90;99.90;;;;;;6128368;23;19931;-90
2022/02/05 15:35:37;;;;;;;;;;;6.90;99.90;;;;;;6128742;23;20185;-88
2022/02/05 15:38:13;;;;;;;;;;;6.90;99.90;;;;;;6128500;23;19978;-85
2022/02/05 15:45:55;;;;;;;;;;;6.90;99.90;;;;;;6153290;23;19921;-85
2022/02/05 15:48:20;;;;;;;;;;;6.80;99.90;;;;;;6178315;23;20281;-86
2022/02/05 15:50:46;;;;;;;;;;;6.80;99.90;;;;;;6127932;23;19951;-88
2022/02/05 15:53:13;;;;;;;;;;;6.80;99.90;;;;;;6126336;23;19916;-89
2022/02/05 15:55:39;;;;;;;;;;;6.80;99.90;;;;;;6127825;23;20006;-88
2022/02/05 15:58:11;;;;;;;;;;;6.80;99.90;;;;;;6152892;23;19920;-87
2022/02/05 16:00:39;;;;;;;;;;;6.70;99.90;;;;;;6126921;23;20204;-85
2022/02/05 16:03:07;;;;;;;;;;;6.70;99.90;;;;;;6151194;23;19948;-87
2022/02/05 16:05:33;;;;;;;;;;;6.60;99.90;;;;;;6150893;23;19916;-90
2022/02/05 16:07:58;;;;;;;;;;;6.60;99.90;;;;;;6149261;23;19924;-89
2022/02/05 16:10:24;;;;;;;;;;;6.60;99.90;;;;;;6126881;23;20321;-86
2022/02/05 16:12:57;;;;;;;;;;;6.60;99.90;;;;;;6126489;23;19958;-88
2022/02/05 16:15:23;;;;;;;;;;;6.60;99.90;;;;;;6152188;23;19921;-86
2022/02/05 16:17:49;;;;;;;;;;;6.60;99.90;;;;;;6150981;23;19931;-88
2022/02/05 16:20:15;;;;;;;;;;;6.60;99.90;;;;;;6150930;23;19962;-87
2022/02/05 16:22:44;;;;;;;;;;;6.60;99.90;;;;;;6175212;23;20373;-87
2022/02/05 16:25:12;;;;;;;;;;;6.60;99.90;;;;;;6126150;23;19920;-88
2022/02/05 16:27:38;;;;;;;;;;;6.60;99.90;;;;;;6174928;23;19947;-87
2022/02/05 16:30:05;;;;;;;;;;;6.60;99.90;;;;;;6151299;23;19916;-85
2022/02/05 16:32:31;;;;;;;;;;;6.50;99.90;;;;;;6150768;23;20361;-86
2022/02/05 16:34:58;;;;;;;;;;;6.50;99.90;;;;;;6151163;23;19995;-85
2022/02/05 16:37:24;;;;;;;;;;;6.50;99.90;;;;;;6122324;23;19927;-88
2022/02/05 16:39:53;;;;;;;;;;;6.50;99.90;;;;;;6126573;23;19927;-87
2022/02/05 16:42:20;;;;;;;;;;;6.50;99.90;;;;;;6129328;23;20346;-88
2022/02/05 16:44:46;;;;;;;;;;;6.50;99.90;;;;;;6125285;23;19954;-89
2022/02/05 16:47:11;;;;;;;;;;;6.50;99.90;;;;;;6153315;23;19920;-84
2022/02/05 16:49:39;;;;;;;;;;;6.50;99.90;;;;;;6180238;23;19939;-88
2022/02/05 16:52:05;;;;;;;;;;;6.50;99.90;;;;;;6153697;23;20270;-88
2022/02/05 16:54:30;;;;;;;;;;;6.40;99.90;;;;;;6130445;23;19920;-87
2022/02/05 16:56:56;;;;;;;;;;;6.40;99.90;;;;;;6129174;23;19916;-87
2022/02/05 16:59:22;;;;;;;;;;;6.40;99.90;;;;;;6128800;23;19920;-86
2022/02/05 17:01:48;;;;;;;;;;;6.30;99.90;;;;;;6153385;23;19998;-87
2022/02/05 17:04:14;;;;;;;;;;;6.30;99.90;;;;;;6153100;23;19943;-86
2022/02/05 17:06:40;;;;;;;;;;;6.20;99.90;;;;;;6152777;23;19920;-85
2022/02/05 17:09:06;;;;;;;;;;;6.20;99.90;;;;;;6177417;23;19991;-88
2022/02/05 17:11:32;;;;;;;;;;;6.10;99.90;;;;;;6152320;23;19924;-88
2022/02/05 17:13:57;;;;;;;;;;;6.10;99.90;;;;;;6127641;23;19920;-86
2022/02/05 17:16:24;;;;;;;;;;;6.00;99.90;;;;;;6178566;23;19951;-91
2022/02/05 17:18:49;;;;;;;;;;;6.00;99.90;;;;;;6126840;23;20226;-87
2022/02/05 17:21:15;;;;;;;;;;;5.90;99.90;;;;;;6150143;23;19998;-83
2022/02/05 17:23:42;;;;;;;;;;;5.90;99.90;;;;;;6128799;23;19927;-85
2022/02/05 17:26:12;;;;;;;;;;;5.90;99.90;;;;;;6178355;23;19923;-90
2022/02/05 17:28:38;;;;;;;;;;;5.90;99.90;;;;;;6151585;23;19999;-89
2022/02/05 17:31:04;;;;;;;;;;;5.90;99.90;;;;;;6152282;23;19971;-88
2022/02/05 17:33:30;;;;;;;;;;;5.90;99.90;;;;;;6178063;23;19920;-87
2022/02/05 17:36:04;;;;;;;;;;;5.90;99.90;;;;;;6127786;23;19927;-87
2022/02/05 17:38:31;;;;;;;;;;;5.90;99.90;;;;;;6151900;23;19962;-85
2022/02/05 17:40:57;;;;;;;;;;;5.90;99.90;;;;;;6152427;23;19952;-85
2022/02/05 17:43:23;;;;;;;;;;;5.90;99.90;;;;;;6152493;23;19916;-82
2022/02/05 17:45:49;;;;;;;;;;;5.80;99.90;;;;;;6177770;23;19954;-83
2022/02/05 17:48:22;;;;;;;;;;;5.80;99.90;;;;;;6128115;23;19920;-83
2022/02/05 17:50:50;;;;;;;;;;;5.80;99.90;;;;;;6153645;23;19994;-88
2022/02/05 17:53:15;;;;;;;;;;;5.80;99.90;;;;;;6156836;23;19931;-90